createdAt,value
2023-05-14T00:00:30.872Z,2.15
2023-05-14T00:02:58.179Z,1.55
2023-05-14T00:05:25.560Z,2.15
2023-05-14T00:07:52.662Z,2.50
2023-05-14T00:10:21.968Z,2.03
2023-05-14T00:12:49.355Z,1.25
2023-05-14T00:15:16.461Z,1.90
2023-05-14T00:17:43.695Z,2.53
2023-05-14T00:20:12.362Z,2.45
2023-05-14T00:22:39.797Z,1.95
2023-05-14T00:25:08.405Z,2.10
2023-05-14T00:27:37.832Z,2.20
2023-05-14T00:30:09.067Z,2.10
2023-05-14T00:32:36.437Z,2.33
2023-05-14T00:35:04.535Z,2.38
2023-05-14T00:37:32.240Z,2.40
2023-05-14T00:39:59.476Z,2.13
2023-05-14T00:42:27.253Z,2.25
2023-05-14T00:44:54.478Z,2.40
2023-05-14T00:47:21.708Z,2.40
2023-05-14T00:49:48.795Z,2.13
2023-05-14T00:52:16.888Z,1.92
2023-05-14T00:54:46.903Z,1.83
2023-05-14T00:57:14.200Z,2.22
2023-05-14T00:59:42.788Z,2.45
2023-05-14T01:02:28.505Z,2.42
2023-05-14T01:04:56.194Z,2.50
2023-05-14T01:07:23.262Z,2.63
2023-05-14T01:10:10.719Z,2.70
2023-05-14T01:13:18.659Z,2.50
2023-05-14T01:15:47.795Z,2.53
2023-05-14T01:18:19.572Z,2.50
2023-05-14T01:20:51.627Z,2.40
2023-05-14T01:23:18.721Z,2.67
2023-05-14T01:25:46.534Z,2.63
2023-05-14T01:28:18.786Z,2.40
2023-05-14T01:31:04.071Z,2.85
2023-05-14T01:33:34.107Z,2.28
2023-05-14T01:36:01.997Z,2.58
2023-05-14T01:38:34.226Z,2.40
2023-05-14T01:41:02.289Z,2.22
2023-05-14T01:43:30.214Z,2.80
2023-05-14T01:45:57.402Z,2.28
2023-05-14T01:48:25.860Z,2.70
2023-05-14T01:50:53.160Z,2.28
2023-05-14T01:53:20.766Z,2.83
2023-05-14T01:55:48.224Z,2.90
2023-05-14T01:58:15.537Z,2.60
2023-05-14T02:00:44.000Z,3.20
2023-05-14T02:03:11.265Z,2.60
2023-05-14T02:05:38.499Z,2.47
2023-05-14T02:08:05.889Z,2.88
2023-05-14T02:10:33.278Z,2.30
2023-05-14T02:13:00.422Z,2.78
2023-05-14T02:15:27.618Z,2.92
2023-05-14T02:17:54.973Z,1.73
2023-05-14T02:20:22.559Z,2.50
2023-05-14T02:22:50.957Z,2.45
2023-05-14T02:25:18.049Z,2.47
2023-05-14T02:27:45.540Z,2.25
2023-05-14T02:30:13.220Z,2.47
2023-05-14T02:32:41.027Z,1.85
2023-05-14T02:35:08.863Z,1.77
2023-05-14T02:37:36.190Z,2.65
2023-05-14T02:40:04.538Z,1.67
2023-05-14T02:42:33.478Z,2.35
2023-05-14T02:45:00.878Z,2.50
2023-05-14T02:47:28.562Z,2.08
2023-05-14T02:49:55.787Z,2.38
2023-05-14T02:52:23.625Z,1.95
2023-05-14T02:54:50.851Z,1.30
2023-05-14T02:57:17.919Z,2.15
2023-05-14T02:59:45.123Z,2.13
2023-05-14T03:02:12.637Z,2.28
2023-05-14T03:04:40.260Z,2.40
2023-05-14T03:07:07.403Z,2.08
2023-05-14T03:09:36.061Z,2.25
2023-05-14T03:12:05.441Z,2.10
2023-05-14T03:14:32.544Z,2.75
2023-05-14T03:16:59.721Z,3.55
2023-05-14T03:19:27.247Z,1.98
2023-05-14T03:21:54.473Z,2.35
2023-05-14T03:24:21.574Z,2.28
2023-05-14T03:26:48.832Z,1.40
2023-05-14T03:29:18.222Z,2.55
2023-05-14T03:31:45.360Z,2.30
2023-05-14T03:34:12.617Z,2.45
2023-05-14T03:36:39.922Z,2.20
2023-05-14T03:39:07.167Z,2.25
2023-05-14T03:41:36.603Z,2.33
2023-05-14T03:44:03.790Z,2.38
2023-05-14T03:46:30.861Z,2.30
2023-05-14T03:48:58.237Z,2.40
2023-05-14T03:51:25.826Z,2.60
2023-05-14T03:53:52.972Z,2.17
2023-05-14T03:56:20.258Z,2.40
2023-05-14T03:58:47.357Z,2.65
2023-05-14T04:01:15.481Z,2.45
2023-05-14T04:03:42.845Z,2.70
2023-05-14T04:06:10.702Z,2.70
2023-05-14T04:08:37.785Z,2.30
2023-05-14T04:11:05.371Z,1.90
2023-05-14T04:13:32.469Z,1.73
2023-05-14T04:15:59.643Z,1.80
2023-05-14T04:18:26.814Z,1.90
2023-05-14T04:20:55.145Z,2.50
2023-05-14T04:23:22.383Z,2.35
2023-05-14T04:25:49.493Z,2.50
2023-05-14T04:28:16.585Z,2.20
2023-05-14T04:30:43.689Z,2.38
2023-05-14T04:33:11.173Z,1.80
2023-05-14T04:35:38.658Z,2.08
2023-05-14T04:38:06.219Z,1.95
2023-05-14T04:40:33.317Z,2.17
2023-05-14T04:43:00.491Z,2.38
2023-05-14T04:45:27.616Z,2.40
2023-05-14T04:47:54.827Z,2.22
2023-05-14T04:50:22.308Z,2.03
2023-05-14T04:52:49.710Z,1.90
2023-05-14T04:55:16.962Z,1.80
2023-05-14T04:57:44.241Z,2.22
2023-05-14T05:00:12.026Z,3.35
2023-05-14T05:02:39.455Z,2.03
2023-05-14T05:05:06.673Z,2.78
2023-05-14T05:07:34.335Z,2.10
2023-05-14T05:10:01.651Z,1.90
2023-05-14T05:12:35.433Z,1.80
2023-05-14T05:15:02.787Z,2.10
2023-05-14T05:17:33.377Z,1.92
2023-05-14T05:20:00.730Z,3.05
2023-05-14T05:22:28.781Z,1.90
2023-05-14T05:24:55.956Z,2.10
2023-05-14T05:27:23.068Z,1.67
2023-05-14T05:29:50.171Z,1.83
2023-05-14T05:32:17.304Z,2.22
2023-05-14T05:34:44.395Z,3.03
2023-05-14T05:37:13.611Z,1.90
2023-05-14T05:39:40.802Z,1.70
2023-05-14T05:42:08.313Z,1.80
2023-05-14T05:44:35.629Z,1.50
2023-05-14T05:47:02.917Z,1.77
2023-05-14T05:49:30.137Z,1.73
2023-05-14T05:51:57.516Z,1.60
2023-05-14T05:54:25.603Z,1.50
2023-05-14T05:56:52.996Z,1.40
2023-05-14T05:59:20.338Z,1.63
2023-05-14T06:01:48.269Z,1.85
2023-05-14T06:04:15.536Z,2.45
2023-05-14T06:06:42.663Z,1.70
2023-05-14T06:09:09.930Z,1.70
2023-05-14T06:11:37.042Z,1.30
2023-05-14T06:14:04.707Z,2.13
2023-05-14T06:16:32.067Z,1.80
2023-05-14T06:18:59.469Z,1.17
2023-05-14T06:21:26.842Z,1.58
2023-05-14T06:23:54.085Z,1.50
2023-05-14T06:26:21.314Z,1.58
2023-05-14T06:28:48.456Z,1.30
2023-05-14T06:31:15.553Z,1.45
2023-05-14T06:33:42.742Z,1.60
2023-05-14T06:36:10.108Z,1.50
2023-05-14T06:38:37.389Z,1.20
2023-05-14T06:41:04.624Z,1.33
2023-05-14T06:43:31.698Z,0.98
2023-05-14T06:45:58.849Z,1.90
2023-05-14T06:48:27.922Z,1.20
2023-05-14T06:50:55.750Z,1.60
2023-05-14T06:53:23.023Z,1.50
2023-05-14T06:55:50.906Z,5.15
2023-05-14T06:58:18.133Z,0.82
2023-05-14T07:00:45.233Z,1.35
2023-05-14T07:03:12.309Z,2.70
2023-05-14T07:05:41.311Z,1.13
2023-05-14T07:08:08.490Z,1.38
2023-05-14T07:10:35.936Z,1.30
2023-05-14T07:13:03.678Z,1.17
2023-05-14T07:15:30.999Z,1.33
2023-05-14T07:17:58.101Z,1.50
2023-05-14T07:20:26.606Z,0.88
2023-05-14T07:22:54.162Z,1.05
2023-05-14T07:25:21.346Z,0.73
2023-05-14T07:27:48.477Z,2.13
2023-05-14T07:30:15.748Z,1.52
2023-05-14T07:32:43.324Z,1.17
2023-05-14T07:35:11.809Z,1.35
2023-05-14T07:37:39.140Z,1.42
2023-05-14T07:40:07.129Z,1.60
2023-05-14T07:42:37.035Z,1.52
2023-05-14T07:45:05.811Z,1.40
2023-05-14T07:47:34.878Z,1.20
2023-05-14T07:50:02.486Z,1.30
2023-05-14T07:52:32.524Z,1.20
2023-05-14T07:55:01.403Z,1.60
2023-05-14T07:57:32.520Z,1.20
2023-05-14T07:59:59.660Z,1.15
2023-05-14T08:02:26.900Z,1.83
2023-05-14T08:04:54.281Z,1.10
2023-05-14T08:07:21.808Z,1.70
2023-05-14T08:09:48.885Z,1.20
2023-05-14T08:12:16.287Z,1.33
2023-05-14T08:14:43.339Z,1.20
2023-05-14T08:17:10.569Z,1.70
2023-05-14T08:19:37.892Z,1.27
2023-05-14T08:22:05.683Z,0.80
2023-05-14T08:24:32.789Z,1.00
2023-05-14T08:26:59.836Z,1.30
2023-05-14T08:29:26.969Z,1.40
2023-05-14T08:31:54.028Z,1.25
2023-05-14T08:34:21.162Z,1.20
2023-05-14T08:36:48.397Z,1.17
2023-05-14T08:39:15.490Z,2.25
2023-05-14T08:41:43.611Z,1.08
2023-05-14T08:44:21.546Z,0.77
2023-05-14T08:46:50.727Z,1.85
2023-05-14T08:49:41.516Z,1.40
2023-05-14T08:52:12.707Z,1.60
2023-05-14T08:54:42.908Z,1.20
2023-05-14T08:57:11.324Z,1.10
2023-05-14T08:59:38.485Z,0.93
2023-05-14T09:02:07.062Z,1.30
2023-05-14T09:04:34.995Z,1.40
2023-05-14T09:07:04.167Z,1.10
2023-05-14T09:09:31.330Z,1.08
2023-05-14T09:11:58.759Z,1.30
2023-05-14T09:14:26.402Z,1.38
2023-05-14T09:16:54.842Z,1.10
2023-05-14T09:19:22.082Z,1.58
2023-05-14T09:21:50.089Z,1.45
2023-05-14T09:24:25.000Z,1.40
2023-05-14T09:26:57.482Z,2.40
2023-05-14T09:29:29.472Z,0.98
2023-05-14T09:31:57.998Z,1.30
2023-05-14T09:34:25.487Z,1.30
2023-05-14T09:37:06.655Z,1.65
2023-05-14T09:39:34.939Z,0.82
2023-05-14T09:42:02.710Z,1.10
2023-05-14T09:44:30.055Z,0.90
2023-05-14T09:46:57.277Z,1.30
2023-05-14T09:49:24.509Z,1.00
2023-05-14T09:51:51.796Z,1.10
2023-05-14T09:54:18.904Z,1.17
2023-05-14T09:56:46.266Z,0.82
2023-05-14T09:59:13.499Z,0.90
2023-05-14T10:01:43.277Z,1.13
2023-05-14T10:04:12.320Z,1.00
2023-05-14T10:06:42.222Z,0.82
2023-05-14T10:09:13.483Z,1.35
2023-05-14T10:11:44.515Z,1.10
2023-05-14T10:14:18.736Z,1.55
2023-05-14T10:16:50.132Z,1.40
2023-05-14T10:19:20.133Z,1.40
2023-05-14T10:21:56.865Z,1.30
2023-05-14T10:24:25.398Z,0.88
2023-05-14T10:26:52.900Z,1.30
2023-05-14T10:29:19.973Z,1.33
2023-05-14T10:31:54.789Z,0.93
2023-05-14T10:34:38.913Z,1.10
2023-05-14T10:37:09.326Z,1.00
2023-05-14T10:42:13.281Z,1.00
2023-05-14T10:44:53.829Z,1.25
2023-05-14T10:49:49.299Z,1.20
2023-05-14T10:52:19.103Z,0.90
2023-05-14T10:54:57.719Z,1.10
2023-05-14T10:57:27.786Z,1.10
2023-05-14T11:00:00.775Z,0.90
2023-05-14T11:02:34.994Z,0.80
2023-05-14T11:05:11.259Z,0.70
2023-05-14T11:07:43.550Z,1.00
2023-05-14T11:10:11.973Z,1.05
2023-05-14T11:12:41.723Z,1.10
2023-05-14T11:15:11.338Z,1.10
2023-05-14T11:17:41.677Z,1.00
2023-05-14T11:20:09.862Z,1.10
2023-05-14T11:22:38.411Z,1.30
2023-05-14T11:25:06.759Z,1.05
2023-05-14T11:27:40.199Z,1.20
2023-05-14T11:30:17.663Z,1.20
2023-05-14T11:32:46.634Z,1.88
2023-05-14T11:35:14.782Z,1.60
2023-05-14T11:37:42.632Z,1.83
2023-05-14T11:40:17.027Z,1.00
2023-05-14T11:42:44.589Z,1.33
2023-05-14T11:45:13.220Z,1.20
2023-05-14T11:47:43.532Z,1.30
2023-05-14T11:50:11.308Z,1.38
2023-05-14T11:52:41.058Z,1.13
2023-05-14T11:55:12.918Z,1.23
2023-05-14T11:57:41.199Z,1.42
2023-05-14T12:00:21.340Z,0.90
2023-05-14T12:02:49.988Z,1.25
2023-05-14T12:05:17.895Z,1.80
2023-05-14T12:07:46.163Z,1.60
2023-05-14T12:10:14.085Z,2.25
2023-05-14T12:12:46.258Z,1.20
2023-05-14T12:15:14.807Z,1.45
2023-05-14T12:17:42.284Z,1.20
2023-05-14T12:20:11.163Z,1.38
2023-05-14T12:22:39.071Z,1.30
2023-05-14T12:25:15.448Z,1.80
2023-05-14T12:27:45.109Z,1.38
2023-05-14T12:30:21.235Z,1.60
2023-05-14T12:32:52.114Z,1.90
2023-05-14T12:35:20.836Z,3.35
2023-05-14T12:37:47.992Z,2.75
2023-05-14T12:40:15.425Z,1.60
2023-05-14T12:42:42.605Z,1.65
2023-05-14T12:45:10.708Z,1.80
2023-05-14T12:47:38.053Z,2.17
2023-05-14T12:50:06.269Z,1.70
2023-05-14T12:52:38.452Z,1.42
2023-05-14T12:55:10.139Z,1.73
2023-05-14T12:57:39.354Z,1.60
2023-05-14T13:00:09.906Z,1.88
2023-05-14T13:02:43.033Z,2.60
2023-05-14T13:05:12.161Z,1.88
2023-05-14T13:07:39.527Z,2.35
2023-05-14T13:10:07.304Z,2.22
2023-05-14T13:12:34.578Z,1.83
2023-05-14T13:15:02.030Z,2.08
2023-05-14T13:17:33.527Z,2.15
2023-05-14T13:20:00.869Z,1.70
2023-05-14T13:22:28.219Z,2.22
2023-05-14T13:24:55.349Z,1.92
2023-05-14T13:27:22.445Z,2.63
2023-05-14T13:29:49.548Z,4.20
2023-05-14T13:32:16.716Z,2.80
2023-05-14T13:34:44.211Z,2.17
2023-05-14T13:37:11.680Z,2.50
2023-05-14T13:39:41.013Z,2.72
2023-05-14T13:42:08.558Z,2.47
2023-05-14T13:44:36.323Z,1.70
2023-05-14T13:47:04.435Z,1.75
2023-05-14T13:49:31.572Z,1.67
2023-05-14T13:51:58.737Z,1.55
2023-05-14T13:54:26.113Z,1.80
2023-05-14T13:56:53.277Z,1.30
2023-05-14T13:59:20.666Z,1.60
2023-05-14T14:01:49.717Z,1.98
2023-05-14T14:04:17.814Z,1.25
2023-05-14T14:06:44.934Z,3.92
2023-05-14T14:09:13.642Z,2.80
2023-05-14T14:11:41.364Z,2.50
2023-05-14T14:14:08.586Z,1.33
2023-05-14T14:16:36.331Z,2.00
2023-05-14T14:19:03.835Z,2.42
2023-05-14T14:21:31.940Z,2.05
2023-05-14T14:23:59.355Z,1.77
2023-05-14T14:26:28.048Z,1.80
2023-05-14T14:28:55.788Z,3.13
2023-05-14T14:31:23.128Z,2.42
2023-05-14T14:33:50.419Z,2.70
2023-05-14T14:36:17.596Z,2.13
2023-05-14T14:38:44.869Z,1.95
2023-05-14T14:41:12.315Z,2.15
2023-05-14T14:43:41.187Z,1.80
2023-05-14T14:46:09.423Z,2.17
2023-05-14T14:48:40.082Z,2.03
2023-05-14T14:51:08.690Z,1.98
2023-05-14T14:53:37.192Z,1.98
2023-05-14T14:56:05.204Z,1.92
2023-05-14T14:58:32.860Z,1.73
2023-05-14T15:01:01.423Z,2.30
2023-05-14T15:03:29.714Z,2.38
2023-05-14T15:05:57.181Z,1.70
2023-05-14T15:08:28.214Z,2.00
2023-05-14T15:10:59.486Z,2.20
2023-05-14T15:13:27.216Z,2.30
2023-05-14T15:15:54.764Z,2.10
2023-05-14T15:18:21.989Z,2.55
2023-05-14T15:20:49.449Z,2.20
2023-05-14T15:23:16.612Z,2.72
2023-05-14T15:25:43.853Z,2.60
2023-05-14T15:28:11.399Z,2.28
2023-05-14T15:30:38.605Z,2.72
2023-05-14T15:33:08.866Z,1.95
2023-05-14T15:38:03.919Z,2.42
2023-05-14T15:40:31.229Z,2.58
2023-05-14T15:42:58.370Z,2.70
2023-05-14T15:45:25.695Z,2.80
2023-05-14T15:47:53.011Z,2.70
2023-05-14T15:50:20.664Z,2.72
2023-05-14T15:52:48.372Z,2.30
2023-05-14T15:55:15.868Z,2.60
2023-05-14T15:57:43.041Z,2.70
2023-05-14T16:00:11.200Z,2.50
2023-05-14T16:02:41.487Z,2.83
2023-05-14T16:05:09.236Z,2.47
2023-05-14T16:07:37.568Z,2.60
2023-05-14T16:10:06.079Z,2.72
2023-05-14T16:12:33.981Z,2.85
2023-05-14T16:15:01.452Z,3.22
2023-05-14T16:17:35.058Z,4.32
2023-05-14T16:20:02.566Z,2.75
2023-05-14T16:22:34.819Z,2.67
2023-05-14T16:25:03.527Z,3.42
2023-05-14T16:27:33.310Z,3.33
2023-05-14T16:30:00.623Z,3.35
2023-05-14T16:32:28.095Z,2.50
2023-05-14T16:34:56.636Z,3.30
2023-05-14T16:37:24.108Z,3.17
2023-05-14T16:39:51.205Z,2.60
2023-05-14T16:42:18.330Z,2.78
2023-05-14T16:45:13.867Z,3.10
2023-05-14T16:47:41.496Z,4.78
2023-05-14T16:50:08.964Z,2.67
2023-05-14T16:52:36.052Z,3.08
2023-05-14T16:55:03.257Z,3.10
2023-05-14T16:57:33.083Z,3.50
2023-05-14T17:00:00.420Z,2.95
2023-05-14T17:02:27.612Z,3.17
2023-05-14T17:04:55.405Z,3.65
2023-05-14T17:07:22.669Z,3.35
2023-05-14T17:09:49.865Z,3.83
2023-05-14T17:12:17.164Z,4.68
2023-05-14T17:14:44.344Z,3.75
2023-05-14T17:17:11.584Z,3.20
2023-05-14T17:19:38.659Z,3.97
2023-05-14T17:22:06.087Z,3.95
2023-05-14T17:24:33.277Z,2.25
2023-05-14T17:27:00.347Z,2.65
2023-05-14T17:29:27.404Z,2.78
2023-05-14T17:31:54.796Z,2.50
2023-05-14T17:34:22.097Z,2.58
2023-05-14T17:36:49.440Z,2.80
2023-05-14T17:39:16.557Z,1.95
2023-05-14T17:41:43.864Z,2.05
2023-05-14T17:44:12.868Z,2.90
2023-05-14T17:46:41.932Z,2.08
2023-05-14T17:49:09.206Z,1.88
2023-05-14T17:51:36.296Z,1.95
2023-05-14T17:54:03.601Z,1.90
2023-05-14T17:56:30.768Z,1.88
2023-05-14T17:58:57.888Z,2.08
2023-05-14T18:01:25.087Z,1.85
2023-05-14T18:03:52.543Z,2.45
2023-05-14T18:06:19.721Z,1.90
2023-05-14T18:08:46.859Z,1.90
2023-05-14T18:11:13.945Z,2.40
2023-05-14T18:13:41.134Z,2.47
2023-05-14T18:16:08.435Z,2.50
2023-05-14T18:18:36.883Z,2.42
2023-05-14T18:21:04.490Z,2.50
2023-05-14T18:23:31.746Z,2.33
2023-05-14T18:25:59.626Z,2.58
2023-05-14T18:28:26.750Z,2.58
2023-05-14T18:30:53.857Z,2.45
2023-05-14T18:33:20.937Z,2.38
2023-05-14T18:35:48.103Z,2.53
2023-05-14T18:38:17.951Z,2.40
2023-05-14T18:40:45.183Z,2.53
2023-05-14T18:43:13.554Z,2.83
2023-05-14T18:45:40.803Z,2.63
2023-05-14T18:48:08.914Z,2.45
2023-05-14T18:50:37.480Z,2.65
2023-05-14T18:53:06.465Z,2.95
2023-05-14T18:55:35.412Z,3.13
2023-05-14T18:58:03.079Z,2.92
2023-05-14T19:00:30.515Z,3.00
2023-05-14T19:02:57.776Z,3.40
2023-05-14T19:05:25.266Z,3.05
2023-05-14T19:07:52.558Z,3.10
2023-05-14T19:10:19.641Z,2.78
2023-05-14T19:12:47.965Z,3.22
2023-05-14T19:15:15.181Z,2.92
2023-05-14T19:17:42.702Z,3.40
2023-05-14T19:20:10.738Z,3.60
2023-05-14T19:22:38.043Z,4.00
2023-05-14T19:25:07.599Z,4.43
2023-05-14T19:27:37.380Z,6.40
2023-05-14T19:30:05.155Z,3.47
2023-05-14T19:32:32.722Z,3.58
2023-05-14T19:34:59.914Z,2.90
2023-05-14T19:37:27.102Z,3.42
2023-05-14T19:39:54.294Z,3.10
2023-05-14T19:42:21.397Z,3.00
2023-05-14T19:44:48.431Z,3.35
2023-05-14T19:47:15.777Z,3.72
2023-05-14T19:49:42.855Z,3.30
2023-05-14T19:52:11.421Z,3.22
2023-05-14T19:54:38.552Z,3.95
2023-05-14T19:57:06.018Z,2.97
2023-05-14T19:59:33.331Z,3.20
2023-05-14T20:02:01.290Z,3.03
2023-05-14T20:04:28.414Z,4.05
2023-05-14T20:06:55.514Z,3.20
2023-05-14T20:09:22.855Z,7.03
2023-05-14T20:11:49.943Z,7.72
2023-05-14T20:14:17.118Z,2.97
2023-05-14T20:16:44.631Z,2.50
2023-05-14T20:19:12.165Z,2.80
2023-05-14T20:21:39.320Z,2.80
2023-05-14T20:24:06.592Z,2.85
2023-05-14T20:26:33.972Z,2.67
2023-05-14T20:29:01.042Z,3.67
2023-05-14T20:31:28.316Z,2.53
2023-05-14T20:33:55.439Z,3.00
2023-05-14T20:36:22.460Z,3.17
2023-05-14T20:38:49.599Z,2.88
2023-05-14T20:41:16.768Z,3.03
2023-05-14T20:43:43.843Z,2.80
2023-05-14T20:46:10.989Z,3.65
2023-05-14T20:48:38.110Z,3.05
2023-05-14T20:51:06.626Z,3.38
2023-05-14T20:53:34.153Z,2.63
2023-05-14T20:56:01.442Z,2.85
2023-05-14T20:58:28.946Z,2.88
2023-05-14T21:00:56.302Z,3.70
2023-05-14T21:03:24.569Z,2.95
2023-05-14T21:05:52.710Z,2.97
2023-05-14T21:08:19.801Z,3.22
2023-05-14T21:10:47.106Z,3.17
2023-05-14T21:13:14.368Z,3.10
2023-05-14T21:15:41.447Z,3.25
2023-05-14T21:18:08.673Z,3.40
2023-05-14T21:20:35.761Z,3.40
2023-05-14T21:23:02.888Z,3.10
2023-05-14T21:25:30.561Z,2.88
2023-05-14T21:27:57.643Z,3.47
2023-05-14T21:30:24.843Z,3.00
2023-05-14T21:32:52.035Z,3.17
2023-05-14T21:35:19.270Z,3.35
2023-05-14T21:37:46.424Z,3.60
2023-05-14T21:40:13.608Z,3.70
2023-05-14T21:42:40.900Z,3.80
2023-05-14T21:45:08.554Z,3.42
2023-05-14T21:47:36.097Z,3.75
2023-05-14T21:50:04.994Z,3.63
2023-05-14T21:52:33.153Z,3.95
2023-05-14T21:55:00.180Z,3.97
2023-05-14T21:57:28.420Z,3.80
2023-05-14T21:59:56.106Z,4.00
2023-05-14T22:02:23.381Z,4.20
2023-05-14T22:04:50.546Z,4.10
2023-05-14T22:07:17.761Z,4.20
2023-05-14T22:09:44.833Z,3.90
2023-05-14T22:12:11.924Z,3.90
2023-05-14T22:14:38.964Z,4.15
2023-05-14T22:17:06.081Z,4.65
2023-05-14T22:19:33.147Z,5.00
2023-05-14T22:22:00.234Z,4.82
2023-05-14T22:24:27.340Z,4.22
2023-05-14T22:26:54.817Z,4.38
2023-05-14T22:29:21.982Z,4.55
2023-05-14T22:31:49.193Z,4.20
2023-05-14T22:34:16.321Z,4.30
2023-05-14T22:36:43.393Z,4.65
2023-05-14T22:39:12.156Z,4.60
2023-05-14T22:41:40.710Z,4.80
2023-05-14T22:44:07.757Z,4.80
2023-05-14T22:46:34.947Z,4.15
2023-05-14T22:49:02.090Z,4.30
2023-05-14T22:51:29.362Z,4.38
2023-05-14T22:53:56.441Z,4.30
2023-05-14T22:56:23.549Z,3.80
2023-05-14T22:58:51.001Z,3.85
2023-05-14T23:01:18.153Z,4.13
2023-05-14T23:03:45.214Z,4.40
2023-05-14T23:06:14.549Z,4.22
2023-05-14T23:08:41.619Z,4.18
2023-05-14T23:11:08.707Z,4.43
2023-05-14T23:13:35.807Z,4.43
2023-05-14T23:16:03.815Z,4.63
2023-05-14T23:18:31.153Z,4.50
2023-05-14T23:20:58.421Z,4.30
2023-05-14T23:23:25.613Z,5.05
2023-05-14T23:25:53.768Z,5.20
2023-05-14T23:28:20.890Z,5.82
2023-05-14T23:30:47.997Z,4.55
2023-05-14T23:33:15.160Z,5.95
2023-05-14T23:35:42.267Z,7.60
2023-05-14T23:38:09.464Z,5.78
2023-05-14T23:40:38.068Z,6.22
2023-05-14T23:43:05.231Z,7.55
2023-05-14T23:45:32.497Z,7.20
2023-05-14T23:48:01.346Z,8.05
2023-05-14T23:50:28.569Z,9.20
2023-05-14T23:52:56.102Z,9.20
2023-05-14T23:55:23.514Z,9.05
2023-05-14T23:57:51.268Z,10.98
